sensor_id;sensor_type;location;lat;lon;timestamp;pressure;altitude;pressure_sealevel;temperature;humidity
5703;BME280;2876;51.738;10.050;2023-05-21T00:00:36;99486.59;;;12.74;100.00
5703;BME280;2876;51.738;10.050;2023-05-21T00:06:38;99488.25;;;12.81;100.00
5703;BME280;2876;51.738;10.050;2023-05-21T00:12:40;99479.75;;;12.91;100.00
5703;BME280;2876;51.738;10.050;2023-05-21T00:18:42;99467.31;;;12.90;100.00
5703;BME280;2876;51.738;10.050;2023-05-21T00:24:45;99464.00;;;12.88;100.00
5703;BME280;2876;51.738;10.050;2023-05-21T00:30:47;99462.13;;;12.88;100.00
5703;BME280;2876;51.738;10.050;2023-05-21T00:36:49;99450.78;;;12.73;100.00
5703;BME280;2876;51.738;10.050;2023-05-21T00:42:53;99440.84;;;12.67;100.00
5703;BME280;2876;51.738;10.050;2023-05-21T00:48:58;99437.16;;;12.48;100.00
5703;BME280;2876;51.738;10.050;2023-05-21T00:55:01;99435.94;;;12.31;100.00
5703;BME280;2876;51.738;10.050;2023-05-21T01:01:03;99430.16;;;12.21;100.00
5703;BME280;2876;51.738;10.050;2023-05-21T01:07:07;99424.34;;;12.30;100.00
5703;BME280;2876;51.738;10.050;2023-05-21T01:13:10;99420.22;;;12.01;100.00
5703;BME280;2876;51.738;10.050;2023-05-21T01:19:19;99421.69;;;12.04;100.00
5703;BME280;2876;51.738;10.050;2023-05-21T01:25:22;99419.00;;;11.97;100.00
5703;BME280;2876;51.738;10.050;2023-05-21T01:31:32;99412.78;;;11.83;100.00
5703;BME280;2876;51.738;10.050;2023-05-21T01:43:58;99406.09;;;11.66;100.00
5703;BME280;2876;51.738;10.050;2023-05-21T01:50:00;99406.72;;;11.55;100.00
5703;BME280;2876;51.738;10.050;2023-05-21T01:56:02;99398.63;;;11.48;100.00
5703;BME280;2876;51.738;10.050;2023-05-21T02:02:05;99400.28;;;11.42;100.00
5703;BME280;2876;51.738;10.050;2023-05-21T02:08:07;99404.84;;;11.49;100.00
5703;BME280;2876;51.738;10.050;2023-05-21T02:14:09;99399.47;;;11.42;100.00
5703;BME280;2876;51.738;10.050;2023-05-21T02:20:12;99393.66;;;11.38;100.00
5703;BME280;2876;51.738;10.050;2023-05-21T02:26:14;99390.75;;;11.27;100.00
5703;BME280;2876;51.738;10.050;2023-05-21T02:32:18;99394.28;;;11.34;100.00
5703;BME280;2876;51.738;10.050;2023-05-21T02:38:20;99387.69;;;11.43;100.00
5703;BME280;2876;51.738;10.050;2023-05-21T02:44:23;99388.72;;;11.42;100.00
5703;BME280;2876;51.738;10.050;2023-05-21T02:50:26;99372.84;;;11.54;100.00
5703;BME280;2876;51.738;10.050;2023-05-21T02:56:28;99384.38;;;11.48;100.00
5703;BME280;2876;51.738;10.050;2023-05-21T03:02:31;99375.50;;;11.47;100.00
5703;BME280;2876;51.738;10.050;2023-05-21T03:08:33;99373.84;;;11.53;100.00
5703;BME280;2876;51.738;10.050;2023-05-21T03:14:35;99373.25;;;11.51;100.00
5703;BME280;2876;51.738;10.050;2023-05-21T03:20:37;99374.50;;;11.55;100.00
5703;BME280;2876;51.738;10.050;2023-05-21T03:26:44;99372.41;;;11.57;100.00
5703;BME280;2876;51.738;10.050;2023-05-21T03:32:46;99374.06;;;11.58;100.00
5703;BME280;2876;51.738;10.050;2023-05-21T03:38:50;99391.84;;;11.52;100.00
5703;BME280;2876;51.738;10.050;2023-05-21T03:44:52;99387.50;;;11.51;100.00
5703;BME280;2876;51.738;10.050;2023-05-21T03:50:54;99389.94;;;11.39;100.00
5703;BME280;2876;51.738;10.050;2023-05-21T03:56:56;99388.94;;;11.40;100.00
5703;BME280;2876;51.738;10.050;2023-05-21T04:02:58;99387.69;;;11.43;100.00
5703;BME280;2876;51.738;10.050;2023-05-21T04:09:01;99397.00;;;11.40;100.00
5703;BME280;2876;51.738;10.050;2023-05-21T04:15:03;99391.03;;;11.58;100.00
5703;BME280;2876;51.738;10.050;2023-05-21T04:21:06;99388.75;;;11.75;100.00
5703;BME280;2876;51.738;10.050;2023-05-21T04:27:08;99384.66;;;11.92;100.00
5703;BME280;2876;51.738;10.050;2023-05-21T04:33:10;99392.91;;;12.24;100.00
5703;BME280;2876;51.738;10.050;2023-05-21T04:39:13;99391.41;;;12.61;100.00
5703;BME280;2876;51.738;10.050;2023-05-21T04:45:15;99394.59;;;12.97;100.00
5703;BME280;2876;51.738;10.050;2023-05-21T04:51:18;99393.69;;;13.23;100.00
5703;BME280;2876;51.738;10.050;2023-05-21T04:57:20;99389.13;;;13.23;100.00
5703;BME280;2876;51.738;10.050;2023-05-21T05:03:22;99393.47;;;13.24;100.00
5703;BME280;2876;51.738;10.050;2023-05-21T05:09:24;99384.50;;;13.30;99.79
5703;BME280;2876;51.738;10.050;2023-05-21T05:15:26;99382.13;;;13.54;98.57
5703;BME280;2876;51.738;10.050;2023-05-21T05:21:28;99390.00;;;13.49;99.05
5703;BME280;2876;51.738;10.050;2023-05-21T05:27:30;99386.31;;;13.75;99.37
5703;BME280;2876;51.738;10.050;2023-05-21T05:33:32;99382.56;;;14.26;98.63
5703;BME280;2876;51.738;10.050;2023-05-21T05:39:34;99375.66;;;14.30;97.26
5703;BME280;2876;51.738;10.050;2023-05-21T05:45:36;99381.88;;;14.74;95.61
5703;BME280;2876;51.738;10.050;2023-05-21T05:51:39;99386.38;;;14.80;95.05
5703;BME280;2876;51.738;10.050;2023-05-21T05:57:41;99387.66;;;14.95;94.83
5703;BME280;2876;51.738;10.050;2023-05-21T06:03:45;99382.69;;;15.11;92.94
5703;BME280;2876;51.738;10.050;2023-05-21T06:09:48;99383.84;;;15.33;93.13
5703;BME280;2876;51.738;10.050;2023-05-21T06:15:51;99387.38;;;15.64;92.33
5703;BME280;2876;51.738;10.050;2023-05-21T06:21:53;99400.50;;;15.90;89.47
5703;BME280;2876;51.738;10.050;2023-05-21T06:27:55;99397.88;;;15.84;90.07
5703;BME280;2876;51.738;10.050;2023-05-21T06:33:58;99401.47;;;16.43;88.96
5703;BME280;2876;51.738;10.050;2023-05-21T06:40:01;99405.03;;;17.19;84.51
5703;BME280;2876;51.738;10.050;2023-05-21T06:46:03;99402.66;;;17.22;82.08
5703;BME280;2876;51.738;10.050;2023-05-21T06:52:05;99411.69;;;17.40;82.70
5703;BME280;2876;51.738;10.050;2023-05-21T06:58:07;99402.50;;;17.86;80.28
5703;BME280;2876;51.738;10.050;2023-05-21T07:04:10;99403.91;;;18.06;78.51
5703;BME280;2876;51.738;10.050;2023-05-21T07:10:12;99402.34;;;17.64;82.19
5703;BME280;2876;51.738;10.050;2023-05-21T07:16:13;99392.56;;;17.92;80.14
5703;BME280;2876;51.738;10.050;2023-05-21T07:22:18;99398.72;;;18.21;79.14
5703;BME280;2876;51.738;10.050;2023-05-21T07:28:20;99392.72;;;18.36;79.47
5703;BME280;2876;51.738;10.050;2023-05-21T07:34:22;99388.09;;;18.53;79.39
5703;BME280;2876;51.738;10.050;2023-05-21T07:40:24;99386.50;;;18.96;76.67
5703;BME280;2876;51.738;10.050;2023-05-21T07:46:26;99389.31;;;18.84;77.64
5703;BME280;2876;51.738;10.050;2023-05-21T07:52:28;99397.22;;;19.30;75.94
5703;BME280;2876;51.738;10.050;2023-05-21T07:58:30;99400.31;;;19.92;74.66
5703;BME280;2876;51.738;10.050;2023-05-21T08:04:33;99387.19;;;20.48;73.66
5703;BME280;2876;51.738;10.050;2023-05-21T08:10:35;99380.41;;;21.14;70.50
5703;BME280;2876;51.738;10.050;2023-05-21T08:16:38;99389.72;;;21.28;70.02
5703;BME280;2876;51.738;10.050;2023-05-21T08:22:40;99395.44;;;21.21;69.56
5703;BME280;2876;51.738;10.050;2023-05-21T08:28:44;99398.81;;;21.44;68.85
5703;BME280;2876;51.738;10.050;2023-05-21T08:34:46;99410.28;;;21.61;67.70
5703;BME280;2876;51.738;10.050;2023-05-21T08:40:50;99394.84;;;21.14;70.01
5703;BME280;2876;51.738;10.050;2023-05-21T08:46:54;99399.31;;;20.78;72.06
5703;BME280;2876;51.738;10.050;2023-05-21T08:52:58;99396.25;;;21.22;70.44
5703;BME280;2876;51.738;10.050;2023-05-21T08:59:02;99394.97;;;21.40;71.11
5703;BME280;2876;51.738;10.050;2023-05-21T09:05:04;99389.53;;;21.65;70.58
5703;BME280;2876;51.738;10.050;2023-05-21T09:11:17;99381.38;;;21.91;68.93
5703;BME280;2876;51.738;10.050;2023-05-21T09:17:22;99372.31;;;22.57;68.35
5703;BME280;2876;51.738;10.050;2023-05-21T09:23:27;99376.41;;;23.34;64.91
5703;BME280;2876;51.738;10.050;2023-05-21T09:29:29;99369.34;;;24.65;60.75
5703;BME280;2876;51.738;10.050;2023-05-21T09:35:34;99369.53;;;25.21;59.12
5703;BME280;2876;51.738;10.050;2023-05-21T09:41:41;99374.22;;;25.21;59.47
5703;BME280;2876;51.738;10.050;2023-05-21T09:47:44;99375.53;;;25.99;57.49
5703;BME280;2876;51.738;10.050;2023-05-21T09:53:52;99369.22;;;26.31;58.64
5703;BME280;2876;51.738;10.050;2023-05-21T09:59:55;99357.84;;;26.79;57.73
5703;BME280;2876;51.738;10.050;2023-05-21T10:05:59;99359.72;;;27.47;53.88
5703;BME280;2876;51.738;10.050;2023-05-21T10:12:01;99352.25;;;27.48;53.86
5703;BME280;2876;51.738;10.050;2023-05-21T10:18:03;99345.38;;;27.95;52.53
5703;BME280;2876;51.738;10.050;2023-05-21T10:24:10;99337.84;;;28.10;52.27
5703;BME280;2876;51.738;10.050;2023-05-21T10:30:14;99333.56;;;28.66;51.25
5703;BME280;2876;51.738;10.050;2023-05-21T10:36:18;99327.78;;;28.36;53.18
5703;BME280;2876;51.738;10.050;2023-05-21T10:56:02;99319.13;;;29.95;47.81
5703;BME280;2876;51.738;10.050;2023-05-21T11:01:38;99323.63;;;30.73;46.33
5703;BME280;2876;51.738;10.050;2023-05-21T11:07:56;99320.50;;;30.74;46.70
5703;BME280;2876;51.738;10.050;2023-05-21T11:13:59;99316.91;;;30.36;46.91
5703;BME280;2876;51.738;10.050;2023-05-21T11:20:07;99322.69;;;29.87;48.08
5703;BME280;2876;51.738;10.050;2023-05-21T11:26:11;99311.94;;;31.60;44.36
5703;BME280;2876;51.738;10.050;2023-05-21T11:32:14;99307.72;;;32.77;43.87
5703;BME280;2876;51.738;10.050;2023-05-21T11:38:18;99290.59;;;32.51;43.08
5703;BME280;2876;51.738;10.050;2023-05-21T11:50:41;99294.16;;;34.41;37.16
5703;BME280;2876;51.738;10.050;2023-05-21T11:56:43;99276.28;;;35.08;35.65
5703;BME280;2876;51.738;10.050;2023-05-21T12:02:52;99279.31;;;34.84;34.96
5703;BME280;2876;51.738;10.050;2023-05-21T12:08:57;99272.91;;;34.99;33.16
5703;BME280;2876;51.738;10.050;2023-05-21T12:15:02;99262.34;;;34.93;33.29
5703;BME280;2876;51.738;10.050;2023-05-21T12:21:18;99264.41;;;36.85;32.49
5703;BME280;2876;51.738;10.050;2023-05-21T12:27:21;99259.00;;;36.23;32.06
5703;BME280;2876;51.738;10.050;2023-05-21T12:33:23;99265.47;;;37.33;30.75
5703;BME280;2876;51.738;10.050;2023-05-21T12:39:26;99268.34;;;37.70;28.68
5703;BME280;2876;51.738;10.050;2023-05-21T12:45:41;99257.94;;;36.54;32.06
5703;BME280;2876;51.738;10.050;2023-05-21T12:51:46;99263.81;;;36.72;31.01
5703;BME280;2876;51.738;10.050;2023-05-21T12:57:48;99245.28;;;36.14;32.64
5703;BME280;2876;51.738;10.050;2023-05-21T13:03:52;99256.44;;;36.60;31.52
5703;BME280;2876;51.738;10.050;2023-05-21T13:16:07;99243.97;;;36.31;31.74
5703;BME280;2876;51.738;10.050;2023-05-21T13:22:09;99232.53;;;36.40;31.34
5703;BME280;2876;51.738;10.050;2023-05-21T13:28:11;99228.00;;;35.86;30.38
5703;BME280;2876;51.738;10.050;2023-05-21T13:34:15;99231.94;;;35.23;31.23
5703;BME280;2876;51.738;10.050;2023-05-21T13:40:17;99229.84;;;33.42;33.82
5703;BME280;2876;51.738;10.050;2023-05-21T13:46:19;99228.06;;;34.73;33.49
5703;BME280;2876;51.738;10.050;2023-05-21T13:52:22;99234.38;;;35.44;30.24
5703;BME280;2876;51.738;10.050;2023-05-21T13:58:31;99236.31;;;36.51;28.36
5703;BME280;2876;51.738;10.050;2023-05-21T14:04:39;99234.88;;;36.38;29.47
5703;BME280;2876;51.738;10.050;2023-05-21T14:10:42;99238.72;;;36.75;29.29
5703;BME280;2876;51.738;10.050;2023-05-21T14:16:47;99227.06;;;36.73;30.48
5703;BME280;2876;51.738;10.050;2023-05-21T14:22:49;99231.53;;;35.82;29.44
5703;BME280;2876;51.738;10.050;2023-05-21T14:28:51;99217.19;;;35.61;30.07
5703;BME280;2876;51.738;10.050;2023-05-21T14:34:53;99210.66;;;35.53;31.03
5703;BME280;2876;51.738;10.050;2023-05-21T14:40:56;99210.72;;;35.38;30.16
5703;BME280;2876;51.738;10.050;2023-05-21T14:46:58;99213.34;;;36.38;30.23
5703;BME280;2876;51.738;10.050;2023-05-21T14:53:08;99213.44;;;35.96;29.29
5703;BME280;2876;51.738;10.050;2023-05-21T14:59:10;99207.66;;;35.04;30.66
5703;BME280;2876;51.738;10.050;2023-05-21T15:05:13;99203.78;;;34.93;31.46
5703;BME280;2876;51.738;10.050;2023-05-21T15:11:15;99198.72;;;35.53;29.83
5703;BME280;2876;51.738;10.050;2023-05-21T15:17:17;99211.09;;;36.21;28.66
5703;BME280;2876;51.738;10.050;2023-05-21T15:23:19;99202.09;;;36.08;28.75
5703;BME280;2876;51.738;10.050;2023-05-21T15:29:21;99202.16;;;36.12;29.37
5703;BME280;2876;51.738;10.050;2023-05-21T15:35:23;99193.97;;;35.38;30.03
5703;BME280;2876;51.738;10.050;2023-05-21T15:41:26;99189.72;;;34.50;30.24
5703;BME280;2876;51.738;10.050;2023-05-21T15:47:28;99188.59;;;33.44;31.54
5703;BME280;2876;51.738;10.050;2023-05-21T15:53:30;99179.13;;;33.05;32.53
5703;BME280;2876;51.738;10.050;2023-05-21T15:59:32;99188.81;;;33.11;32.72
5703;BME280;2876;51.738;10.050;2023-05-21T16:05:34;99174.84;;;32.18;34.75
5703;BME280;2876;51.738;10.050;2023-05-21T16:11:36;99173.75;;;31.74;35.84
5703;BME280;2876;51.738;10.050;2023-05-21T16:17:38;99175.59;;;30.82;37.60
5703;BME280;2876;51.738;10.050;2023-05-21T16:23:43;99170.19;;;30.56;38.83
5703;BME280;2876;51.738;10.050;2023-05-21T16:29:46;99158.53;;;30.51;38.25
5703;BME280;2876;51.738;10.050;2023-05-21T16:35:48;99163.44;;;30.16;38.88
5703;BME280;2876;51.738;10.050;2023-05-21T16:41:50;99156.25;;;29.85;39.02
5703;BME280;2876;51.738;10.050;2023-05-21T16:47:53;99160.44;;;29.44;40.74
5703;BME280;2876;51.738;10.050;2023-05-21T16:53:55;99162.06;;;29.45;41.60
5703;BME280;2876;51.738;10.050;2023-05-21T16:59:57;99150.16;;;29.62;41.41
5703;BME280;2876;51.738;10.050;2023-05-21T17:05:59;99142.53;;;29.97;40.24
5703;BME280;2876;51.738;10.050;2023-05-21T17:12:02;99160.44;;;29.62;38.91
5703;BME280;2876;51.738;10.050;2023-05-21T17:18:04;99156.47;;;30.10;39.10
5703;BME280;2876;51.738;10.050;2023-05-21T17:24:06;99162.72;;;30.57;39.48
5703;BME280;2876;51.738;10.050;2023-05-21T17:30:08;99156.50;;;30.01;39.57
5703;BME280;2876;51.738;10.050;2023-05-21T17:36:11;99152.88;;;28.98;42.13
5703;BME280;2876;51.738;10.050;2023-05-21T17:42:13;99154.50;;;29.08;41.06
5703;BME280;2876;51.738;10.050;2023-05-21T17:48:15;99151.19;;;28.45;42.86
5703;BME280;2876;51.738;10.050;2023-05-21T17:54:18;99151.44;;;28.17;43.02
5703;BME280;2876;51.738;10.050;2023-05-21T18:00:20;99150.97;;;27.75;45.16
5703;BME280;2876;51.738;10.050;2023-05-21T18:06:22;99144.53;;;27.58;45.23
5703;BME280;2876;51.738;10.050;2023-05-21T18:12:24;99144.38;;;27.09;46.65
5703;BME280;2876;51.738;10.050;2023-05-21T18:18:27;99149.94;;;26.59;47.87
5703;BME280;2876;51.738;10.050;2023-05-21T18:24:32;99144.59;;;26.76;48.24
5703;BME280;2876;51.738;10.050;2023-05-21T18:30:34;99147.22;;;26.31;49.77
5703;BME280;2876;51.738;10.050;2023-05-21T18:36:39;99157.41;;;26.31;50.01
5703;BME280;2876;51.738;10.050;2023-05-21T18:42:41;99161.63;;;25.54;51.74
5703;BME280;2876;51.738;10.050;2023-05-21T18:48:43;99154.63;;;24.97;54.12
5703;BME280;2876;51.738;10.050;2023-05-21T18:54:45;99162.13;;;24.53;55.69
5703;BME280;2876;51.738;10.050;2023-05-21T19:00:47;99167.53;;;23.92;58.29
5703;BME280;2876;51.738;10.050;2023-05-21T19:06:49;99168.94;;;23.31;60.36
5703;BME280;2876;51.738;10.050;2023-05-21T19:12:52;99169.06;;;22.76;61.79
5703;BME280;2876;51.738;10.050;2023-05-21T19:18:54;99162.72;;;22.37;63.33
5703;BME280;2876;51.738;10.050;2023-05-21T19:24:58;99171.06;;;21.96;64.56
5703;BME280;2876;51.738;10.050;2023-05-21T19:31:01;99182.63;;;21.62;66.10
5703;BME280;2876;51.738;10.050;2023-05-21T19:37:04;99192.97;;;21.29;67.47
5703;BME280;2876;51.738;10.050;2023-05-21T19:43:06;99192.69;;;21.00;69.08
5703;BME280;2876;51.738;10.050;2023-05-21T19:49:08;99199.63;;;20.45;71.39
5703;BME280;2876;51.738;10.050;2023-05-21T19:55:15;99199.50;;;20.15;72.93
5703;BME280;2876;51.738;10.050;2023-05-21T20:01:21;99199.09;;;19.86;74.61
5703;BME280;2876;51.738;10.050;2023-05-21T20:07:24;99203.22;;;19.56;75.75
5703;BME280;2876;51.738;10.050;2023-05-21T20:13:26;99200.53;;;19.24;76.88
5703;BME280;2876;51.738;10.050;2023-05-21T20:19:28;99206.75;;;19.19;77.29
5703;BME280;2876;51.738;10.050;2023-05-21T20:25:31;99206.53;;;19.26;77.19
5703;BME280;2876;51.738;10.050;2023-05-21T20:31:33;99208.38;;;19.20;77.00
5703;BME280;2876;51.738;10.050;2023-05-21T20:37:36;99214.19;;;19.34;76.51
5703;BME280;2876;51.738;10.050;2023-05-21T20:43:38;99211.00;;;19.10;77.09
5703;BME280;2876;51.738;10.050;2023-05-21T20:49:40;99207.94;;;19.01;77.57
5703;BME280;2876;51.738;10.050;2023-05-21T20:55:50;99205.88;;;19.14;76.85
5703;BME280;2876;51.738;10.050;2023-05-21T21:01:55;99207.81;;;19.18;76.02
5703;BME280;2876;51.738;10.050;2023-05-21T21:07:57;99213.00;;;19.20;76.39
5703;BME280;2876;51.738;10.050;2023-05-21T21:14:03;99213.63;;;19.27;76.07
5703;BME280;2876;51.738;10.050;2023-05-21T21:20:11;99212.97;;;19.15;77.08
5703;BME280;2876;51.738;10.050;2023-05-21T21:26:15;99213.41;;;19.07;76.97
5703;BME280;2876;51.738;10.050;2023-05-21T21:32:18;99211.38;;;19.19;77.17
5703;BME280;2876;51.738;10.050;2023-05-21T21:38:26;99217.59;;;19.14;76.83
5703;BME280;2876;51.738;10.050;2023-05-21T21:44:28;99209.03;;;19.33;76.49
5703;BME280;2876;51.738;10.050;2023-05-21T21:50:30;99211.63;;;19.49;76.05
5703;BME280;2876;51.738;10.050;2023-05-21T21:56:32;99208.88;;;19.44;75.89
5703;BME280;2876;51.738;10.050;2023-05-21T22:02:34;99205.38;;;19.49;75.66
5703;BME280;2876;51.738;10.050;2023-05-21T22:08:36;99217.31;;;19.48;75.28
5703;BME280;2876;51.738;10.050;2023-05-21T22:14:38;99203.59;;;19.33;75.39
5703;BME280;2876;51.738;10.050;2023-05-21T22:20:40;99201.41;;;19.35;75.18
5703;BME280;2876;51.738;10.050;2023-05-21T22:26:44;99189.19;;;19.32;74.89
5703;BME280;2876;51.738;10.050;2023-05-21T22:32:46;99188.28;;;19.21;75.99
5703;BME280;2876;51.738;10.050;2023-05-21T22:38:48;99178.91;;;19.07;76.16
5703;BME280;2876;51.738;10.050;2023-05-21T22:44:51;99185.25;;;19.18;76.07
5703;BME280;2876;51.738;10.050;2023-05-21T22:50:53;99179.44;;;19.04;76.70
5703;BME280;2876;51.738;10.050;2023-05-21T22:56:55;99181.88;;;19.06;77.19
5703;BME280;2876;51.738;10.050;2023-05-21T23:02:57;99182.50;;;19.13;76.96
5703;BME280;2876;51.738;10.050;2023-05-21T23:09:00;99186.13;;;19.23;76.48
5703;BME280;2876;51.738;10.050;2023-05-21T23:15:05;99182.63;;;19.28;76.83
5703;BME280;2876;51.738;10.050;2023-05-21T23:21:08;99180.31;;;19.15;78.03
5703;BME280;2876;51.738;10.050;2023-05-21T23:27:11;99176.47;;;19.11;78.86
5703;BME280;2876;51.738;10.050;2023-05-21T23:33:13;99175.31;;;19.01;79.68
5703;BME280;2876;51.738;10.050;2023-05-21T23:39:15;99182.41;;;18.75;80.86
5703;BME280;2876;51.738;10.050;2023-05-21T23:45:20;99176.59;;;18.67;80.23
5703;BME280;2876;51.738;10.050;2023-05-21T23:51:23;99168.41;;;18.89;79.66
5703;BME280;2876;51.738;10.050;2023-05-21T23:57:25;99175.34;;;18.74;80.36
